createdAt,value
2022-09-09T00:00:10.259Z,12.21
2022-09-09T00:04:15.803Z,12.24
2022-09-09T00:08:32.316Z,12.25
2022-09-09T00:12:43.362Z,12.27
2022-09-09T00:18:02.580Z,12.21
2022-09-09T00:23:21.559Z,12.17
2022-09-09T00:28:50.794Z,12.07
2022-09-09T00:33:59.686Z,12
2022-09-09T00:39:18.627Z,12.05
2022-09-09T00:44:37.818Z,12.04
2022-09-09T00:50:07.422Z,11.97
2022-09-09T00:55:16.433Z,12.07
2022-09-09T01:03:49.490Z,12.14
2022-09-09T01:12:22.560Z,12.11
2022-09-09T01:16:33.735Z,12.13
2022-09-09T01:21:52.558Z,12.11
2022-09-09T01:34:42.164Z,12.11
2022-09-09T01:38:58.657Z,12.28
2022-09-09T01:43:15.216Z,12.22
2022-09-09T01:48:29.127Z,12.1
2022-09-09T01:53:48.744Z,11.95
2022-09-09T01:59:08.147Z,11.93
2022-09-09T02:04:27.321Z,12.16
2022-09-09T02:09:46.588Z,12.25
2022-09-09T02:15:05.830Z,12.34
2022-09-09T02:23:38.903Z,12.49
2022-09-09T02:27:55.397Z,12.59
2022-09-09T02:36:23.558Z,12.52
2022-09-09T02:41:42.925Z,12.48
2022-09-09T02:47:02.382Z,12.49
2022-09-09T02:52:21.164Z,12.51
2022-09-09T03:01:56.574Z,12.55
2022-09-09T03:13:36.832Z,14.81
2022-09-09T03:18:56.080Z,14.78
2022-09-09T03:24:14.844Z,14.36
2022-09-09T03:29:46.402Z,14.2
2022-09-09T03:34:53.982Z,14.08
2022-09-09T03:40:24.164Z,13.61
2022-09-09T03:45:32.087Z,14.02
2022-09-09T03:50:51.054Z,14.67
2022-09-09T03:56:10.775Z,14.68
2022-09-09T04:01:30.497Z,14.37
2022-09-09T04:06:49.478Z,14.64
2022-09-09T04:12:09.159Z,15.27
2022-09-09T04:17:28.886Z,15.31
2022-09-09T04:22:48.107Z,15.18
2022-09-09T04:28:07.209Z,15.31
2022-09-09T04:33:26.507Z,15.39
2022-09-09T04:38:45.903Z,15.31
2022-09-09T04:47:18.948Z,15.28
2022-09-09T04:54:43.195Z,15.29
2022-09-09T05:00:02.434Z,15.24
2022-09-09T05:05:21.231Z,15.24
2022-09-09T05:10:52.907Z,15.25
2022-09-09T05:16:00.111Z,15.38
2022-09-09T05:21:18.907Z,15.48
2022-09-09T05:26:38.322Z,15.52
2022-09-09T05:31:57.729Z,15.49
2022-09-09T05:37:16.490Z,15.43
2022-09-09T05:42:46.966Z,15.34
2022-09-09T05:51:08.979Z,15.29
2022-09-09T05:53:14.175Z,15.55
2022-09-09T06:03:52.643Z,16.01
2022-09-09T06:09:11.541Z,16.18
2022-09-09T06:14:30.461Z,16.27
2022-09-09T06:19:49.459Z,16.28
2022-09-09T06:25:08.774Z,16.29
2022-09-09T06:30:27.611Z,16.04
2022-09-09T06:35:46.600Z,15.87
2022-09-09T06:41:05.658Z,15.97
2022-09-09T06:46:24.679Z,15.83
2022-09-09T06:51:43.372Z,15.6
2022-09-09T06:57:15.618Z,15.89
2022-09-09T07:02:22.118Z,16.4
2022-09-09T07:07:51.877Z,16.92
2022-09-09T07:13:00.207Z,17.43
2022-09-09T07:18:19.002Z,17.79
2022-09-09T07:23:38.275Z,18.04
2022-09-09T07:28:57.623Z,18.28
2022-09-09T07:34:16.843Z,18.81
2022-09-09T07:39:35.755Z,19.2
2022-09-09T07:45:05.744Z,19.14
2022-09-09T07:50:14.146Z,19.12
2022-09-09T07:55:33.026Z,19
2022-09-09T08:00:52.287Z,19.27
2022-09-09T08:06:11.223Z,19.59
2022-09-09T08:11:32.429Z,19.94
2022-09-09T08:20:03.691Z,20.4
2022-09-09T08:22:09.072Z,20.48
2022-09-09T08:32:47.184Z,20.03
2022-09-09T08:38:10.251Z,20.17
2022-09-09T08:43:25.179Z,20.55
2022-09-09T08:48:44.598Z,20.75
2022-09-09T08:54:03.642Z,20.91
2022-09-09T08:59:33.398Z,20.57
2022-09-09T09:07:55.408Z,20.86
2022-09-09T09:12:11.971Z,21.58
2022-09-09T09:15:20.357Z,21.78
2022-09-09T09:20:39.575Z,21.76
2022-09-09T09:26:10.508Z,20.91
2022-09-09T09:34:31.565Z,20.82
2022-09-09T09:36:36.293Z,21.54
2022-09-09T09:47:14.207Z,22.62
2022-09-09T09:52:33.103Z,22
2022-09-09T10:03:11.786Z,22.15
2022-09-09T10:08:31.352Z,22.7
2022-09-09T10:13:50.208Z,23.1
2022-09-09T10:19:09.657Z,22.9
2022-09-09T10:24:29.173Z,23.18
2022-09-09T10:29:58.416Z,23.35
2022-09-09T10:35:07.978Z,23.08
2022-09-09T10:43:41.069Z,22.19
2022-09-09T10:47:57.578Z,21.25
2022-09-09T10:56:30.626Z,20.04
2022-09-09T11:01:42.000Z,14.44
2022-09-09T11:08:40.543Z,14.26
2022-09-09T11:12:21.103Z,14.76
2022-09-09T11:17:40.110Z,16.18
2022-09-09T11:23:10.112Z,16.79
2022-09-09T11:31:32.230Z,17.44
2022-09-09T11:35:48.714Z,17.7
2022-09-09T11:44:15.231Z,17.34
2022-09-09T11:49:34.347Z,17.57
2022-09-09T11:54:53.733Z,18.16
2022-09-09T12:00:12.994Z,18.91
2022-09-09T12:05:32.056Z,18.87
2022-09-09T12:14:05.134Z,18.87
2022-09-09T12:22:38.179Z,20.26
2022-09-09T12:32:18.264Z,20.74
2022-09-09T12:37:26.711Z,21.71
2022-09-09T12:42:46.092Z,21.37
2022-09-09T12:48:03.996Z,20.76
2022-09-09T12:53:26.118Z,20.84
2022-09-09T12:58:41.741Z,20.69
2022-09-09T13:05:15.908Z,20.63
2022-09-09T13:09:21.397Z,20.59
2022-09-09T13:14:51.953Z,20.43
2022-09-09T13:20:00.371Z,20.34
2022-09-09T13:25:18.535Z,20.29
2022-09-09T13:32:17.137Z,20.12
2022-09-09T13:35:56.969Z,19.93
2022-09-09T13:42:55.528Z,19.96
2022-09-09T13:46:36.197Z,19.87
2022-09-09T13:51:55.171Z,19.87
2022-09-09T13:57:25.955Z,19.98
2022-09-09T14:05:47.049Z,20.23
2022-09-09T14:10:03.559Z,21.05
2022-09-09T14:18:31.011Z,22.6
2022-09-09T14:23:49.835Z,22.53
2022-09-09T14:32:22.875Z,22.07
2022-09-09T14:45:05.617Z,21.66
2022-09-09T14:50:24.446Z,20.4
2022-09-09T14:55:44.012Z,18.87
2022-09-09T15:01:02.779Z,16.64
2022-09-09T15:06:21.822Z,15.83
2022-09-09T15:14:54.839Z,16.62
2022-09-09T15:23:27.932Z,18.61
2022-09-09T15:32:58.626Z,18.96
2022-09-09T15:41:31.688Z,19.14
2022-09-09T15:50:04.765Z,18.76
2022-09-09T15:54:13.613Z,18.29
2022-09-09T15:59:33.498Z,17.92
2022-09-09T16:01:49.243Z,17.99
2022-09-09T16:05:28.673Z,17.74
2022-09-09T16:12:02.846Z,18.36
2022-09-09T16:16:08.203Z,18.86
2022-09-09T16:21:27.030Z,18.68
2022-09-09T16:26:46.380Z,18.45
2022-09-09T16:32:04.774Z,18.4
2022-09-09T16:37:23.703Z,18.39
2022-09-09T16:42:51.677Z,18.43
2022-09-09T16:48:01.798Z,18.43
2022-09-09T16:53:20.626Z,18.15
2022-09-09T16:58:40.890Z,17.94
2022-09-09T17:05:15.090Z,17.81
2022-09-09T17:09:20.867Z,17.77
2022-09-09T17:14:38.669Z,17.7
2022-09-09T17:19:57.618Z,17.66
2022-09-09T17:25:16.410Z,17.54
2022-09-09T17:30:43.995Z,17.51
2022-09-09T17:35:54.470Z,17.37
2022-09-09T17:42:28.620Z,17.24
2022-09-09T17:46:44.092Z,17.1
2022-09-09T17:53:42.638Z,17.02
2022-09-09T17:57:13.113Z,17.02
2022-09-09T18:14:19.233Z,16.89
2022-09-09T18:23:48.689Z,16.61
2022-09-09T18:29:06.358Z,16.57
2022-09-09T18:34:25.445Z,16.42
2022-09-09T18:39:44.154Z,16.29
2022-09-09T18:45:11.337Z,16.28
2022-09-09T18:50:22.360Z,16.16
2022-09-09T18:55:41.381Z,16.08
2022-09-09T19:01:01.787Z,16.03
2022-09-09T19:06:30.170Z,15.86
2022-09-09T19:11:39.298Z,15.65
2022-09-09T19:16:59.455Z,15.52
2022-09-09T19:22:18.308Z,15.42
2022-09-09T19:27:36.674Z,15.38
2022-09-09T19:32:56.671Z,15.4
2022-09-09T19:39:30.817Z,15.36
2022-09-09T19:43:36.825Z,15.32
2022-09-09T19:48:55.406Z,15.24
2022-09-09T19:54:14.376Z,15.19
2022-09-09T20:02:58.138Z,15.25
2022-09-09T20:15:30.461Z,15.01
2022-09-09T20:24:03.525Z,14.91
2022-09-09T20:32:36.565Z,14.67
2022-09-09T20:36:51.960Z,14.76
2022-09-09T20:42:04.336Z,14.8
2022-09-09T20:47:23.332Z,14.81
2022-09-09T20:53:51.191Z,14.81
2022-09-09T20:58:01.987Z,14.77
2022-09-09T21:03:20.693Z,14.66
2022-09-09T21:08:39.900Z,14.53
2022-09-09T21:13:59.429Z,14.36
2022-09-09T21:20:58.029Z,14.3
2022-09-09T21:29:58.082Z,14.49
2022-09-09T21:35:16.981Z,14.66
2022-09-09T21:40:36.685Z,14.76
2022-09-09T21:45:56.263Z,14.8
2022-09-09T21:51:15.193Z,14.68
2022-09-09T21:56:34.379Z,14.67
2022-09-09T22:01:53.534Z,14.59
2022-09-09T22:10:26.519Z,14.46
2022-09-09T22:12:30.904Z,14.26
2022-09-09T22:17:49.622Z,14.15
2022-09-09T22:23:08.383Z,14.05
2022-09-09T22:28:27.172Z,13.98
2022-09-09T22:33:45.918Z,13.92
2022-09-09T22:39:05.304Z,13.89
2022-09-09T22:44:24.049Z,13.83
2022-09-09T22:50:58.209Z,13.77
2022-09-09T22:55:03.282Z,13.77
2022-09-09T23:00:22.879Z,13.77
2022-09-09T23:05:41.614Z,13.78
2022-09-09T23:11:00.928Z,13.75
2022-09-09T23:16:19.989Z,13.65
2022-09-09T23:21:39.680Z,13.67
2022-09-09T23:30:45.149Z,13.68
2022-09-09T23:32:18.165Z,13.64
2022-09-09T23:37:36.935Z,13.57
2022-09-09T23:42:56.374Z,13.48
2022-09-09T23:51:29.455Z,13.55
2022-09-09T23:55:46.010Z,13.67
